aviador You're here:

KMYL Decoded Metar

MCCALL in ID, USA
Report Time2017-12-15 19:09:00
UTC Time2017-12-15 19:43:03
Flight Rules vfr VFR
WindCalm
Visibility9999 m
Phenomena:N/A
Clouds:Few 002 Hf
Expected CloudBase > 400 ft AGL from Temp-Dew spread
CeilingNone
Temp-7°C (ISA -12)
Dew Point-8°C (93% RH)
AAT-9.9°C
QNH1020 hPa
Density Alt3,383 ft
Elevation5,030 ft
Report Wrong Elevation
Raw Report
KMYL 151909Z AUTO 00000KT 10SM FEW002 M07/M08 A3012=

Extra information for KMYL:More info

Metar Taf Metar & Taf Last 4 Metars F.Rules Stats Wind Profile Meteogram Temp Stats Airport Information Weather charts Add Link Nearby VenuesMetar ALERT Operation Metar Decoded Social comments

AIRNAV info for KMYL